Time;durP1;ratioP1;P1;durP2;ratioP2;P2;SDS_P1;SDS_P2;PMS_P1;PMS_P2;Temp;Humidity;BMP_temperature;BMP_pressure;BME280_temperature;BME280_humidity;BME280_pressure;Samples;Min_cycle;Max_cycle;Signal;HPM_P1;HPM_P2
2021/07/02 08:25:58;;;;;;;;;;;;;;;;;;5249821;23;20372;-74
2021/07/02 08:31:07;;;;;;;;;;;;;;;;;;4939215;29;19973;-74
2021/07/02 09:47:29;;;;;;;;;;;;;;;;;;4969130;28;19930;-78
2021/07/02 09:50:10;;;;;;;;;;;;;;;;;;4957040;28;19923;-78
2021/07/02 09:52:40;;;;;;;;;;;;;;;;;;4957482;28;19925;-74
2021/07/02 09:55:06;;;;;;;;;;;;;;;;;;4964417;29;19918;-74
2021/07/02 09:57:31;;;;;;;;;;;;;;;;;;4961854;28;19926;-74
2021/07/02 10:00:26;;;;;;;;;;;;;;;;;;4957438;28;19918;-74
2021/07/02 10:02:53;;;;;;;;;;;;;;;;;;4948638;28;19918;-78
2021/07/02 10:05:19;;;;;;;;;;;;;;;;;;4956566;28;19958;-72
2021/07/02 10:07:57;;;;;;;;;;;;;;;;;;4956810;28;19918;-72
2021/07/02 10:10:24;;;;;;;;;;;;;;;;;;4956691;28;20289;-72
2021/07/02 10:12:49;;;;;;;;;;;;;;;;;;4956441;28;20017;-77
2021/07/02 10:15:15;;;;;;;;;;;;;;;;;;4956476;28;19965;-76
2021/07/02 10:17:40;;;;;;;;;;;;;;;;;;4956554;28;19919;-76
2021/07/02 10:20:06;;;;;;;;;;;;;;;;;;4956257;28;20353;-77
2021/07/02 10:22:31;;;;;;;;;;;;;;;;;;4956264;28;19919;-77
2021/07/02 10:24:57;;;;;;;;;;;;;;;;;;4956166;28;19919;-79
2021/07/02 10:27:22;;;;;;;;;;;;;;;;;;4956595;28;20404;-77
2021/07/02 10:29:47;;;;;;;;;;;;;;;;;;4956360;28;20269;-80
2021/07/02 10:32:14;;;;;;;;;;;;;;;;;;4956078;28;20266;-79
2021/07/02 10:34:39;;;;;;;;;;;;;;;;;;4956289;28;19922;-79
2021/07/02 10:37:05;;;;;;;;;;;;;;;;;;4956523;28;19918;-75
2021/07/02 10:39:32;;;;;;;;;;;;;;;;;;4956293;28;20014;-76
2021/07/02 10:42:03;;;;;;;;;;;;;;;;;;4956232;28;20012;-79
2021/07/02 10:44:28;;;;;;;;;;;;;;;;;;4955932;28;20008;-76
2021/07/02 10:47:03;;;;;;;;;;;;;;;;;;4954840;29;20014;-81
2021/07/02 10:49:35;;;;;;;;;;;;;;;;;;4956049;28;19932;-79
2021/07/02 10:52:18;;;;;;;;;;;;;;;;;;4956315;28;19926;-76
2021/07/02 10:54:44;;;;;;;;;;;;;;;;;;4954293;29;19918;-77
2021/07/02 10:57:12;;;;;;;;;;;;;;;;;;4955692;28;19918;-77
2021/07/02 10:59:37;;;;;;;;;;;;;;;;;;4956076;28;20354;-75
2021/07/02 11:02:09;;;;;;;;;;;;;;;;;;4956102;28;19925;-77
2021/07/02 11:04:40;;;;;;;;;;;;;;;;;;4954651;29;19958;-76
2021/07/02 11:07:08;;;;;;;;;;;;;;;;;;4955615;28;19918;-77
2021/07/02 11:09:42;;;;;;;;;;;;;;;;;;4955707;28;19966;-80
2021/07/02 11:12:09;;;;;;;;;;;;;;;;;;4956034;28;20278;-76
2021/07/02 11:17:26;;;;;;;;;;;;;;;;;;4955696;29;19925;-75
2021/07/02 11:20:04;;;;;;;;;;;;;;;;;;4955722;28;20285;-77
2021/07/02 11:22:32;;;;;;;;;;;;;;;;;;4955915;28;19919;-75
2021/07/02 11:25:32;;;;;;;;;;;;;;;;;;4955566;28;19922;-80
2021/07/02 11:28:04;;;;;;;;;;;;;;;;;;4954493;29;19918;-77
2021/07/02 11:30:35;;;;;;;;;;;;;;;;;;4954733;29;19926;-79
2021/07/02 11:33:09;;;;;;;;;;;;;;;;;;4955665;28;19954;-81
2021/07/02 11:35:34;;;;;;;;;;;;;;;;;;4955665;28;19966;-79
2021/07/02 11:38:05;;;;;;;;;;;;;;;;;;4955639;28;20368;-81
2021/07/02 11:40:31;;;;;;;;;;;;;;;;;;4955886;28;19925;-74
2021/07/02 11:42:56;;;;;;;;;;;;;;;;;;4955429;28;19918;-79
2021/07/02 11:45:37;;;;;;;;;;;;;;;;;;4955468;28;19919;-77
2021/07/02 11:48:04;;;;;;;;;;;;;;;;;;4955350;28;19923;-75
2021/07/02 11:50:42;;;;;;;;;;;;;;;;;;4955476;28;19973;-76
2021/07/02 11:53:25;;;;;;;;;;;;;;;;;;4955322;28;19923;-76
2021/07/02 11:55:58;;;;;;;;;;;;;;;;;;4955878;28;19926;-81
2021/07/02 11:58:26;;;;;;;;;;;;;;;;;;4955490;28;19922;-80
2021/07/02 12:00:51;;;;;;;;;;;;;;;;;;4955581;28;19918;-74
2021/07/02 12:03:18;;;;;;;;;;;;;;;;;;4955154;28;19925;-78
2021/07/02 12:05:59;;;;;;;;;;;;;;;;;;4955564;28;19918;-78
2021/07/02 12:08:26;;;;;;;;;;;;;;;;;;4956857;28;20273;-78
2021/07/02 12:10:55;;;;;;;;;;;;;;;;;;4958875;28;20005;-79
2021/07/02 12:13:21;;;;;;;;;;;;;;;;;;4958633;28;20054;-79
2021/07/02 12:15:58;;;;;;;;;;;;;;;;;;4958924;28;19922;-79
2021/07/02 12:18:24;;;;;;;;;;;;;;;;;;4958722;28;19915;-81
2021/07/02 12:21:00;;;;;;;;;;;;;;;;;;4958367;29;19919;-80
2021/07/02 12:23:29;;;;;;;;;;;;;;;;;;4958509;28;19914;-78
2021/07/02 12:26:07;;;;;;;;;;;;;;;;;;4958479;29;19973;-78
2021/07/02 12:28:52;;;;;;;;;;;;;;;;;;4958513;28;20001;-79
2021/07/02 12:31:21;;;;;;;;;;;;;;;;;;4958358;28;20369;-79
2021/07/02 12:33:46;;;;;;;;;;;;;;;;;;4958306;28;19918;-79
2021/07/02 12:36:11;;;;;;;;;;;;;;;;;;4958388;28;19925;-78
2021/07/02 12:38:56;;;;;;;;;;;;;;;;;;4958200;28;20440;-79
2021/07/02 12:41:21;;;;;;;;;;;;;;;;;;4958381;28;19925;-77
2021/07/02 12:43:46;;;;;;;;;;;;;;;;;;4963644;28;19919;-74
2021/07/02 12:46:12;;;;;;;;;;;;;;;;;;4962913;29;20013;-74
2021/07/02 12:48:37;;;;;;;;;;;;;;;;;;4958221;28;19974;-73
2021/07/02 12:51:02;;;;;;;;;;;;;;;;;;4958442;28;19925;-73
2021/07/02 12:56:12;;;;;;;;;;;;;;;;;;4957907;29;19929;-74
2021/07/02 12:58:37;;;;;;;;;;;;;;;;;;4958184;28;19922;-74
2021/07/02 13:01:07;;;;;;;;;;;;;;;;;;4957969;28;19997;-76
2021/07/02 13:03:32;;;;;;;;;;;;;;;;;;4957808;28;19918;-73
2021/07/02 13:06:10;;;;;;;;;;;;;;;;;;4956443;29;19974;-75
2021/07/02 13:08:38;;;;;;;;;;;;;;;;;;4957914;29;19925;-74
2021/07/02 13:11:16;;;;;;;;;;;;;;;;;;4957530;28;19945;-74
2021/07/02 13:13:41;;;;;;;;;;;;;;;;;;4957585;28;20417;-74
2021/07/02 13:16:06;;;;;;;;;;;;;;;;;;4957612;28;20017;-74
2021/07/02 13:18:36;;;;;;;;;;;;;;;;;;4957118;28;19918;-76
2021/07/02 13:21:04;;;;;;;;;;;;;;;;;;4957313;28;19919;-74
2021/07/02 13:23:30;;;;;;;;;;;;;;;;;;4957310;28;19919;-74
2021/07/02 13:26:05;;;;;;;;;;;;;;;;;;4957467;28;19926;-73
2021/07/02 13:28:32;;;;;;;;;;;;;;;;;;4957391;28;19961;-78
2021/07/02 13:30:57;;;;;;;;;;;;;;;;;;4957288;28;19918;-74
2021/07/02 13:33:22;;;;;;;;;;;;;;;;;;4957021;28;19919;-74
2021/07/02 13:35:48;;;;;;;;;;;;;;;;;;4957138;28;19925;-73
2021/07/02 13:38:17;;;;;;;;;;;;;;;;;;4957481;28;20285;-75
2021/07/02 13:40:44;;;;;;;;;;;;;;;;;;4957082;28;19925;-73
2021/07/02 13:43:10;;;;;;;;;;;;;;;;;;4957056;28;20383;-74
2021/07/02 13:45:36;;;;;;;;;;;;;;;;;;4957045;28;19926;-73
2021/07/02 13:48:05;;;;;;;;;;;;;;;;;;4956903;28;19926;-75
2021/07/02 13:50:31;;;;;;;;;;;;;;;;;;4956957;28;20010;-75
2021/07/02 13:52:56;;;;;;;;;;;;;;;;;;4955636;29;20031;-73
2021/07/02 13:55:21;;;;;;;;;;;;;;;;;;4956760;28;19919;-75
2021/07/02 13:57:46;;;;;;;;;;;;;;;;;;4957084;28;19923;-74
2021/07/02 14:00:12;;;;;;;;;;;;;;;;;;4956732;28;19925;-78
2021/07/02 14:02:37;;;;;;;;;;;;;;;;;;4956719;28;19970;-79
2021/07/02 14:05:03;;;;;;;;;;;;;;;;;;4956636;28;20285;-79
2021/07/02 14:07:28;;;;;;;;;;;;;;;;;;4956755;28;20013;-78
2021/07/02 14:09:53;;;;;;;;;;;;;;;;;;4956696;28;19925;-78
2021/07/02 14:12:19;;;;;;;;;;;;;;;;;;4956477;28;19954;-78
2021/07/02 14:14:45;;;;;;;;;;;;;;;;;;4955377;29;19919;-78
2021/07/02 14:17:10;;;;;;;;;;;;;;;;;;4956616;29;19919;-78
2021/07/02 14:19:35;;;;;;;;;;;;;;;;;;4956564;28;19922;-78
2021/07/02 14:22:01;;;;;;;;;;;;;;;;;;4956410;28;19918;-78
2021/07/02 14:24:26;;;;;;;;;;;;;;;;;;4956415;28;19973;-78
2021/07/02 14:26:51;;;;;;;;;;;;;;;;;;4956753;28;20017;-78
2021/07/02 14:29:17;;;;;;;;;;;;;;;;;;4956566;28;19919;-78
2021/07/02 14:31:42;;;;;;;;;;;;;;;;;;4955783;28;20441;-78
2021/07/02 14:34:08;;;;;;;;;;;;;;;;;;4955107;29;19937;-78
2021/07/02 14:36:33;;;;;;;;;;;;;;;;;;4956061;28;19965;-78
2021/07/02 14:38:58;;;;;;;;;;;;;;;;;;4956290;28;19919;-77
2021/07/02 14:41:24;;;;;;;;;;;;;;;;;;4954361;28;19922;-78
2021/07/02 14:43:49;;;;;;;;;;;;;;;;;;4953924;28;20393;-75
2021/07/02 14:46:14;;;;;;;;;;;;;;;;;;4955493;28;19974;-72
2021/07/02 14:48:40;;;;;;;;;;;;;;;;;;4955515;29;19929;-73
2021/07/02 14:51:05;;;;;;;;;;;;;;;;;;4955822;29;20011;-76
2021/07/02 14:53:31;;;;;;;;;;;;;;;;;;4955860;29;19918;-75
2021/07/02 14:55:58;;;;;;;;;;;;;;;;;;4955861;29;19965;-76
2021/07/02 14:58:23;;;;;;;;;;;;;;;;;;4955934;29;19918;-75
2021/07/02 15:00:48;;;;;;;;;;;;;;;;;;4955750;29;20435;-76
2021/07/02 15:03:14;;;;;;;;;;;;;;;;;;4955651;29;19925;-73
2021/07/02 15:05:39;;;;;;;;;;;;;;;;;;4955762;29;20397;-74
2021/07/02 15:08:05;;;;;;;;;;;;;;;;;;4955913;29;20009;-76
2021/07/02 15:10:30;;;;;;;;;;;;;;;;;;4955927;29;20017;-76
2021/07/02 15:12:56;;;;;;;;;;;;;;;;;;4955322;29;19946;-76
2021/07/02 15:15:22;;;;;;;;;;;;;;;;;;4955474;29;19933;-76
2021/07/02 15:17:48;;;;;;;;;;;;;;;;;;4955670;29;19922;-77
2021/07/02 15:20:13;;;;;;;;;;;;;;;;;;4955951;29;19965;-77
2021/07/02 15:22:38;;;;;;;;;;;;;;;;;;4955737;29;19925;-75
2021/07/02 15:25:04;;;;;;;;;;;;;;;;;;4954517;28;20017;-75
2021/07/02 15:27:29;;;;;;;;;;;;;;;;;;4955810;29;20022;-78
2021/07/02 15:30:13;;;;;;;;;;;;;;;;;;4955859;29;19919;-77
2021/07/02 15:32:39;;;;;;;;;;;;;;;;;;4963079;28;19994;-77
2021/07/02 15:35:04;;;;;;;;;;;;;;;;;;4960438;29;19962;-77
2021/07/02 15:37:29;;;;;;;;;;;;;;;;;;4956808;29;19997;-78
2021/07/02 15:39:54;;;;;;;;;;;;;;;;;;4956849;29;19961;-78
2021/07/02 15:42:20;;;;;;;;;;;;;;;;;;4957794;28;20285;-78
2021/07/02 15:44:46;;;;;;;;;;;;;;;;;;4959519;29;19914;-78
2021/07/02 15:47:11;;;;;;;;;;;;;;;;;;4959164;29;20009;-74
2021/07/02 15:49:37;;;;;;;;;;;;;;;;;;4959113;29;20061;-74
2021/07/02 15:52:04;;;;;;;;;;;;;;;;;;4959129;29;19950;-74
2021/07/02 15:54:29;;;;;;;;;;;;;;;;;;4959417;29;20285;-78
2021/07/02 15:56:54;;;;;;;;;;;;;;;;;;4959270;29;19919;-73
2021/07/02 15:59:20;;;;;;;;;;;;;;;;;;4959016;29;19922;-76
2021/07/02 16:01:45;;;;;;;;;;;;;;;;;;4958825;29;19930;-76
2021/07/02 16:04:10;;;;;;;;;;;;;;;;;;4958896;29;19965;-76
2021/07/02 16:06:36;;;;;;;;;;;;;;;;;;4957877;29;19918;-76
2021/07/02 16:09:03;;;;;;;;;;;;;;;;;;4958525;29;19961;-76
2021/07/02 16:11:28;;;;;;;;;;;;;;;;;;4957991;29;19977;-76
2021/07/02 16:13:54;;;;;;;;;;;;;;;;;;4958886;29;19918;-77
2021/07/02 16:16:19;;;;;;;;;;;;;;;;;;4958463;29;19989;-77
2021/07/02 16:18:44;;;;;;;;;;;;;;;;;;4958969;29;19919;-73
2021/07/02 16:21:10;;;;;;;;;;;;;;;;;;4958774;29;20365;-77
2021/07/02 16:23:35;;;;;;;;;;;;;;;;;;4958277;29;20018;-77
2021/07/02 16:26:00;;;;;;;;;;;;;;;;;;4957329;28;19933;-74
2021/07/02 16:28:26;;;;;;;;;;;;;;;;;;4958383;29;19918;-75
2021/07/02 16:30:51;;;;;;;;;;;;;;;;;;4958499;29;19941;-77
2021/07/02 16:33:16;;;;;;;;;;;;;;;;;;4958153;29;19922;-74
2021/07/02 16:35:42;;;;;;;;;;;;;;;;;;4958380;29;20013;-74
2021/07/02 16:38:08;;;;;;;;;;;;;;;;;;4957146;29;19919;-74
2021/07/02 16:40:33;;;;;;;;;;;;;;;;;;4958385;29;19918;-75
2021/07/02 16:42:59;;;;;;;;;;;;;;;;;;4958115;29;19922;-77
2021/07/02 16:45:24;;;;;;;;;;;;;;;;;;4958074;29;19918;-76
2021/07/02 16:47:52;;;;;;;;;;;;;;;;;;4957893;29;19964;-74
2021/07/02 16:50:17;;;;;;;;;;;;;;;;;;4957879;29;19922;-77
2021/07/02 16:52:42;;;;;;;;;;;;;;;;;;4957890;29;19918;-76
2021/07/02 16:55:08;;;;;;;;;;;;;;;;;;4957291;28;19923;-77
2021/07/02 16:57:33;;;;;;;;;;;;;;;;;;4958106;29;19925;-77
2021/07/02 16:59:58;;;;;;;;;;;;;;;;;;4957799;29;20392;-76
2021/07/02 17:02:24;;;;;;;;;;;;;;;;;;4957860;29;19930;-75
2021/07/02 17:04:49;;;;;;;;;;;;;;;;;;4957681;29;19925;-76
2021/07/02 17:07:15;;;;;;;;;;;;;;;;;;4957897;29;19918;-74
2021/07/02 17:09:40;;;;;;;;;;;;;;;;;;4957654;29;20385;-75
2021/07/02 17:12:06;;;;;;;;;;;;;;;;;;4957740;29;19918;-75
2021/07/02 17:14:31;;;;;;;;;;;;;;;;;;4957532;29;19919;-75
2021/07/02 17:16:57;;;;;;;;;;;;;;;;;;4957558;29;19965;-76
2021/07/02 17:19:22;;;;;;;;;;;;;;;;;;4957750;29;20272;-76
2021/07/02 17:21:48;;;;;;;;;;;;;;;;;;4957524;29;19922;-78
2021/07/02 17:24:13;;;;;;;;;;;;;;;;;;4957320;29;20005;-76
2021/07/02 17:26:39;;;;;;;;;;;;;;;;;;4957395;29;19923;-75
2021/07/02 17:29:04;;;;;;;;;;;;;;;;;;4957222;29;19925;-78
2021/07/02 17:31:29;;;;;;;;;;;;;;;;;;4957730;29;19919;-75
2021/07/02 17:33:55;;;;;;;;;;;;;;;;;;4957060;29;20325;-77
2021/07/02 17:36:20;;;;;;;;;;;;;;;;;;4957244;29;19972;-77
2021/07/02 17:38:45;;;;;;;;;;;;;;;;;;4957206;29;20317;-75
2021/07/02 17:41:11;;;;;;;;;;;;;;;;;;4957193;29;19919;-78
2021/07/02 17:43:36;;;;;;;;;;;;;;;;;;4955826;29;19926;-77
2021/07/02 17:46:02;;;;;;;;;;;;;;;;;;4956843;29;20280;-79
2021/07/02 17:48:27;;;;;;;;;;;;;;;;;;4957081;29;20399;-73
2021/07/02 17:50:52;;;;;;;;;;;;;;;;;;4955602;29;19922;-75
2021/07/02 17:53:19;;;;;;;;;;;;;;;;;;4956862;29;20373;-78
2021/07/02 17:55:44;;;;;;;;;;;;;;;;;;4956775;29;20012;-77
2021/07/02 17:58:09;;;;;;;;;;;;;;;;;;4957050;29;19963;-76
2021/07/02 18:00:35;;;;;;;;;;;;;;;;;;4956747;29;20005;-77
2021/07/02 18:03:00;;;;;;;;;;;;;;;;;;4956650;29;19918;-73
2021/07/02 18:05:26;;;;;;;;;;;;;;;;;;4956646;28;20358;-76
2021/07/02 18:07:51;;;;;;;;;;;;;;;;;;4956743;29;19919;-76
2021/07/02 18:10:17;;;;;;;;;;;;;;;;;;4956880;29;19971;-74
2021/07/02 18:12:42;;;;;;;;;;;;;;;;;;4956431;29;20286;-74
2021/07/02 18:15:08;;;;;;;;;;;;;;;;;;4956379;29;19973;-74
2021/07/02 18:17:33;;;;;;;;;;;;;;;;;;4956727;29;19918;-72
2021/07/02 18:19:59;;;;;;;;;;;;;;;;;;4957533;29;19926;-74
2021/07/02 18:22:25;;;;;;;;;;;;;;;;;;4959481;29;20285;-72
2021/07/02 18:24:50;;;;;;;;;;;;;;;;;;4957415;29;19918;-72
2021/07/02 18:27:15;;;;;;;;;;;;;;;;;;4956396;29;19919;-72
2021/07/02 18:29:41;;;;;;;;;;;;;;;;;;4956362;29;19965;-72
2021/07/02 18:32:07;;;;;;;;;;;;;;;;;;4956468;29;19919;-72
2021/07/02 18:34:32;;;;;;;;;;;;;;;;;;4956216;29;20016;-72
2021/07/02 18:37:13;;;;;;;;;;;;;;;;;;5112269;27;20014;-74
2021/07/02 18:39:39;;;;;;;;;;;;;;;;;;5111897;28;19952;-75
2021/07/02 18:42:04;;;;;;;;;;;;;;;;;;5111786;28;19962;-74
2021/07/02 18:44:29;;;;;;;;;;;;;;;;;;5112262;28;19927;-77
2021/07/02 18:46:55;;;;;;;;;;;;;;;;;;5111830;28;20372;-75
2021/07/02 18:49:24;;;;;;;;;;;;;;;;;;5112042;28;19920;-73
2021/07/02 18:51:50;;;;;;;;;;;;;;;;;;5112031;28;20417;-74
2021/07/02 18:54:15;;;;;;;;;;;;;;;;;;5110386;28;19970;-74
2021/07/02 18:56:41;;;;;;;;;;;;;;;;;;5110387;28;19916;-75
2021/07/02 18:59:06;;;;;;;;;;;;;;;;;;5111877;28;19916;-75
2021/07/02 19:01:31;;;;;;;;;;;;;;;;;;5111473;28;19923;-74
2021/07/02 19:03:57;;;;;;;;;;;;;;;;;;5110467;28;19916;-74
2021/07/02 19:06:22;;;;;;;;;;;;;;;;;;5111445;28;20480;-75
2021/07/02 19:08:47;;;;;;;;;;;;;;;;;;5111511;28;19916;-74
2021/07/02 19:11:13;;;;;;;;;;;;;;;;;;5111326;28;19920;-74
2021/07/02 19:13:38;;;;;;;;;;;;;;;;;;5111535;28;19927;-74
2021/07/02 19:16:04;;;;;;;;;;;;;;;;;;5111379;28;20011;-75
2021/07/02 19:18:29;;;;;;;;;;;;;;;;;;5111254;28;19923;-74
2021/07/02 19:20:56;;;;;;;;;;;;;;;;;;5111214;28;19916;-77
2021/07/02 19:23:21;;;;;;;;;;;;;;;;;;5111137;28;19934;-77
2021/07/02 19:25:47;;;;;;;;;;;;;;;;;;5110923;28;19916;-74
2021/07/02 19:28:12;;;;;;;;;;;;;;;;;;5111105;28;19916;-75
2021/07/02 19:30:38;;;;;;;;;;;;;;;;;;5111125;28;20358;-75
2021/07/02 19:33:03;;;;;;;;;;;;;;;;;;5111048;28;19919;-78
2021/07/02 19:35:29;;;;;;;;;;;;;;;;;;5110570;28;20065;-75
2021/07/02 19:37:54;;;;;;;;;;;;;;;;;;5110764;28;20393;-76
2021/07/02 19:40:20;;;;;;;;;;;;;;;;;;5110664;28;19915;-75
2021/07/02 19:42:45;;;;;;;;;;;;;;;;;;5110513;28;19920;-75
2021/07/02 19:45:11;;;;;;;;;;;;;;;;;;5110628;28;20449;-76
2021/07/02 19:47:37;;;;;;;;;;;;;;;;;;5102444;28;20320;-75
2021/07/02 19:50:02;;;;;;;;;;;;;;;;;;5097200;28;19923;-79
2021/07/02 19:52:28;;;;;;;;;;;;;;;;;;5094962;28;19969;-74
2021/07/02 19:54:53;;;;;;;;;;;;;;;;;;5096762;28;19920;-75
2021/07/02 19:57:19;;;;;;;;;;;;;;;;;;5096643;28;19916;-76
2021/07/02 19:59:44;;;;;;;;;;;;;;;;;;5095355;28;20354;-75
2021/07/02 20:02:09;;;;;;;;;;;;;;;;;;5096632;28;19941;-77
2021/07/02 20:04:35;;;;;;;;;;;;;;;;;;5096366;28;20389;-78
2021/07/02 20:07:00;;;;;;;;;;;;;;;;;;5096646;28;19920;-76
2021/07/02 20:09:26;;;;;;;;;;;;;;;;;;5096503;28;19916;-76
2021/07/02 20:11:51;;;;;;;;;;;;;;;;;;5096326;28;20401;-79
2021/07/02 20:14:17;;;;;;;;;;;;;;;;;;5096267;28;19920;-78
2021/07/02 20:16:43;;;;;;;;;;;;;;;;;;5096478;28;19916;-79
2021/07/02 20:19:09;;;;;;;;;;;;;;;;;;5096409;28;19916;-75
2021/07/02 20:21:34;;;;;;;;;;;;;;;;;;5096384;28;19912;-78
2021/07/02 20:24:00;;;;;;;;;;;;;;;;;;5096292;28;19920;-77
2021/07/02 20:26:25;;;;;;;;;;;;;;;;;;5096017;28;19912;-79
2021/07/02 20:28:50;;;;;;;;;;;;;;;;;;5096051;28;19950;-78
2021/07/02 20:31:16;;;;;;;;;;;;;;;;;;5096194;28;19923;-76
2021/07/02 20:33:42;;;;;;;;;;;;;;;;;;5096046;28;19999;-78
2021/07/02 20:36:08;;;;;;;;;;;;;;;;;;5095886;28;19965;-78
2021/07/02 20:38:34;;;;;;;;;;;;;;;;;;5095821;28;19920;-78
2021/07/02 20:41:00;;;;;;;;;;;;;;;;;;5094729;28;19923;-77
2021/07/02 20:43:25;;;;;;;;;;;;;;;;;;5095941;28;19923;-76
2021/07/02 20:45:50;;;;;;;;;;;;;;;;;;5095877;28;19916;-79
2021/07/02 20:48:18;;;;;;;;;;;;;;;;;;5095816;28;19999;-77
2021/07/02 20:50:43;;;;;;;;;;;;;;;;;;5095796;28;20318;-78
2021/07/02 20:53:08;;;;;;;;;;;;;;;;;;5094290;28;19916;-76
2021/07/02 20:55:34;;;;;;;;;;;;;;;;;;5095511;28;19917;-78
2021/07/02 20:57:59;;;;;;;;;;;;;;;;;;5095439;28;19916;-75
2021/07/02 21:00:24;;;;;;;;;;;;;;;;;;5093564;28;19920;-76
2021/07/02 21:02:50;;;;;;;;;;;;;;;;;;5095763;28;19924;-75
2021/07/02 21:05:15;;;;;;;;;;;;;;;;;;5095296;28;19923;-74
2021/07/02 21:07:41;;;;;;;;;;;;;;;;;;5096119;28;20427;-73
2021/07/02 21:10:06;;;;;;;;;;;;;;;;;;5100738;28;19923;-73
2021/07/02 21:12:32;;;;;;;;;;;;;;;;;;5098078;28;19920;-73
2021/07/02 21:14:57;;;;;;;;;;;;;;;;;;5095209;28;19916;-73
2021/07/02 21:17:23;;;;;;;;;;;;;;;;;;5095312;28;20036;-74
2021/07/02 21:19:48;;;;;;;;;;;;;;;;;;5095248;28;19923;-73
2021/07/02 21:22:14;;;;;;;;;;;;;;;;;;5095113;28;20359;-73
2021/07/02 21:24:40;;;;;;;;;;;;;;;;;;5095038;28;20018;-73
2021/07/02 21:27:05;;;;;;;;;;;;;;;;;;5095159;28;20014;-74
2021/07/02 21:29:30;;;;;;;;;;;;;;;;;;5095110;28;20366;-74
2021/07/02 21:31:56;;;;;;;;;;;;;;;;;;5095212;28;19916;-74
2021/07/02 21:34:21;;;;;;;;;;;;;;;;;;5095284;28;19917;-73
2021/07/02 21:36:46;;;;;;;;;;;;;;;;;;5094847;28;19923;-74
2021/07/02 21:39:12;;;;;;;;;;;;;;;;;;5093891;28;20388;-74
2021/07/02 21:41:37;;;;;;;;;;;;;;;;;;5094745;28;19972;-74
2021/07/02 21:44:03;;;;;;;;;;;;;;;;;;5095157;28;19939;-74
2021/07/02 21:46:28;;;;;;;;;;;;;;;;;;5094777;28;19961;-74
2021/07/02 21:48:53;;;;;;;;;;;;;;;;;;5095040;28;19965;-74
2021/07/02 21:51:18;;;;;;;;;;;;;;;;;;5094729;28;19978;-77
2021/07/02 21:53:44;;;;;;;;;;;;;;;;;;5094601;28;19923;-76
2021/07/02 21:56:10;;;;;;;;;;;;;;;;;;5094483;28;19916;-76
2021/07/02 21:58:35;;;;;;;;;;;;;;;;;;5094717;28;19916;-77
2021/07/02 22:01:00;;;;;;;;;;;;;;;;;;5094703;28;19920;-77
2021/07/02 22:03:26;;;;;;;;;;;;;;;;;;5094435;28;19916;-79
2021/07/02 22:05:51;;;;;;;;;;;;;;;;;;5094657;28;19923;-79
2021/07/02 22:08:17;;;;;;;;;;;;;;;;;;5094655;28;19912;-76
